sensor_id;sensor_type;location;lat;lon;timestamp;P1;durP1;ratioP1;P2;durP2;ratioP2
31091;SDS011;67728;53.122;12.776;2023-03-30T00:00:05;310.97;;;58.70;;
31091;SDS011;67728;53.122;12.776;2023-03-30T00:01:47;311.57;;;58.77;;
31091;SDS011;67728;53.122;12.776;2023-03-30T00:03:20;314.57;;;59.50;;
31091;SDS011;67728;53.122;12.776;2023-03-30T00:04:51;313.57;;;59.67;;
31091;SDS011;67728;53.122;12.776;2023-03-30T00:06:23;309.43;;;59.20;;
31091;SDS011;67728;53.122;12.776;2023-03-30T00:07:55;310.83;;;58.97;;
31091;SDS011;67728;53.122;12.776;2023-03-30T00:09:27;309.87;;;58.67;;
31091;SDS011;67728;53.122;12.776;2023-03-30T00:11:01;311.87;;;58.80;;
31091;SDS011;67728;53.122;12.776;2023-03-30T00:12:34;310.00;;;58.53;;
31091;SDS011;67728;53.122;12.776;2023-03-30T00:14:05;309.80;;;60.13;;
31091;SDS011;67728;53.122;12.776;2023-03-30T00:15:36;313.53;;;62.33;;
31091;SDS011;67728;53.122;12.776;2023-03-30T00:17:08;312.07;;;58.83;;
31091;SDS011;67728;53.122;12.776;2023-03-30T00:18:41;313.67;;;59.37;;
31091;SDS011;67728;53.122;12.776;2023-03-30T00:20:14;311.57;;;59.33;;
31091;SDS011;67728;53.122;12.776;2023-03-30T00:21:46;314.50;;;62.27;;
31091;SDS011;67728;53.122;12.776;2023-03-30T00:23:18;310.43;;;59.03;;
31091;SDS011;67728;53.122;12.776;2023-03-30T00:24:49;310.07;;;60.20;;
31091;SDS011;67728;53.122;12.776;2023-03-30T00:26:21;313.20;;;59.47;;
31091;SDS011;67728;53.122;12.776;2023-03-30T00:27:52;312.60;;;59.60;;
31091;SDS011;67728;53.122;12.776;2023-03-30T00:29:24;311.97;;;59.40;;
31091;SDS011;67728;53.122;12.776;2023-03-30T00:30:56;311.00;;;59.40;;
31091;SDS011;67728;53.122;12.776;2023-03-30T00:32:28;309.90;;;58.93;;
31091;SDS011;67728;53.122;12.776;2023-03-30T00:34:01;310.77;;;58.90;;
31091;SDS011;67728;53.122;12.776;2023-03-30T00:35:33;310.63;;;58.80;;
31091;SDS011;67728;53.122;12.776;2023-03-30T00:37:03;311.97;;;59.00;;
31091;SDS011;67728;53.122;12.776;2023-03-30T00:38:35;311.67;;;59.30;;
31091;SDS011;67728;53.122;12.776;2023-03-30T00:40:07;311.00;;;58.90;;
31091;SDS011;67728;53.122;12.776;2023-03-30T00:41:43;311.53;;;59.07;;
31091;SDS011;67728;53.122;12.776;2023-03-30T00:43:16;311.87;;;59.33;;
31091;SDS011;67728;53.122;12.776;2023-03-30T00:45:06;309.80;;;58.83;;
31091;SDS011;67728;53.122;12.776;2023-03-30T00:46:52;308.83;;;57.83;;
31091;SDS011;67728;53.122;12.776;2023-03-30T00:48:24;308.07;;;57.90;;
31091;SDS011;67728;53.122;12.776;2023-03-30T00:49:59;313.83;;;59.27;;
31091;SDS011;67728;53.122;12.776;2023-03-30T00:51:31;309.87;;;58.50;;
31091;SDS011;67728;53.122;12.776;2023-03-30T00:53:07;309.43;;;58.53;;
31091;SDS011;67728;53.122;12.776;2023-03-30T00:54:40;309.13;;;58.33;;
31091;SDS011;67728;53.122;12.776;2023-03-30T00:56:12;310.10;;;58.10;;
31091;SDS011;67728;53.122;12.776;2023-03-30T00:57:46;313.47;;;59.00;;
31091;SDS011;67728;53.122;12.776;2023-03-30T00:59:18;311.33;;;58.90;;
31091;SDS011;67728;53.122;12.776;2023-03-30T01:00:50;311.30;;;58.57;;
31091;SDS011;67728;53.122;12.776;2023-03-30T01:02:22;310.73;;;58.40;;
31091;SDS011;67728;53.122;12.776;2023-03-30T01:03:53;312.20;;;58.77;;
31091;SDS011;67728;53.122;12.776;2023-03-30T01:05:29;308.93;;;58.30;;
31091;SDS011;67728;53.122;12.776;2023-03-30T01:07:01;309.47;;;58.30;;
31091;SDS011;67728;53.122;12.776;2023-03-30T01:08:33;308.70;;;58.03;;
31091;SDS011;67728;53.122;12.776;2023-03-30T01:10:07;309.83;;;58.40;;
31091;SDS011;67728;53.122;12.776;2023-03-30T01:11:40;308.37;;;58.00;;
31091;SDS011;67728;53.122;12.776;2023-03-30T01:13:13;309.27;;;58.43;;
31091;SDS011;67728;53.122;12.776;2023-03-30T01:14:45;308.63;;;58.60;;
31091;SDS011;67728;53.122;12.776;2023-03-30T01:16:18;309.33;;;58.80;;
31091;SDS011;67728;53.122;12.776;2023-03-30T01:20:02;308.83;;;58.37;;
31091;SDS011;67728;53.122;12.776;2023-03-30T01:22:04;306.97;;;57.83;;
31091;SDS011;67728;53.122;12.776;2023-03-30T01:24:17;310.63;;;58.23;;
31091;SDS011;67728;53.122;12.776;2023-03-30T01:28:20;305.87;;;57.50;;
31091;SDS011;67728;53.122;12.776;2023-03-30T01:30:12;309.50;;;58.20;;
31091;SDS011;67728;53.122;12.776;2023-03-30T01:34:04;310.80;;;59.10;;
31091;SDS011;67728;53.122;12.776;2023-03-30T01:36:00;307.77;;;57.97;;
31091;SDS011;67728;53.122;12.776;2023-03-30T01:40:03;309.60;;;58.70;;
31091;SDS011;67728;53.122;12.776;2023-03-30T01:41:40;307.43;;;58.73;;
31091;SDS011;67728;53.122;12.776;2023-03-30T01:43:24;311.50;;;59.50;;
31091;SDS011;67728;53.122;12.776;2023-03-30T01:45:02;310.37;;;59.70;;
31091;SDS011;67728;53.122;12.776;2023-03-30T01:46:40;307.77;;;59.47;;
31091;SDS011;67728;53.122;12.776;2023-03-30T01:48:17;311.50;;;60.37;;
31091;SDS011;67728;53.122;12.776;2023-03-30T01:49:59;312.57;;;60.97;;
31091;SDS011;67728;53.122;12.776;2023-03-30T01:51:34;310.80;;;60.27;;
31091;SDS011;67728;53.122;12.776;2023-03-30T01:53:13;310.47;;;59.80;;
31091;SDS011;67728;53.122;12.776;2023-03-30T01:54:47;312.73;;;60.70;;
31091;SDS011;67728;53.122;12.776;2023-03-30T01:56:25;308.20;;;59.30;;
31091;SDS011;67728;53.122;12.776;2023-03-30T01:58:00;310.57;;;59.07;;
31091;SDS011;67728;53.122;12.776;2023-03-30T01:59:38;309.00;;;59.03;;
31091;SDS011;67728;53.122;12.776;2023-03-30T02:01:14;309.67;;;59.57;;
31091;SDS011;67728;53.122;12.776;2023-03-30T02:02:50;311.30;;;59.60;;
31091;SDS011;67728;53.122;12.776;2023-03-30T02:04:24;314.47;;;60.53;;
31091;SDS011;67728;53.122;12.776;2023-03-30T02:06:00;312.90;;;59.83;;
31091;SDS011;67728;53.122;12.776;2023-03-30T02:07:35;310.37;;;58.93;;
31091;SDS011;67728;53.122;12.776;2023-03-30T02:09:10;313.07;;;59.63;;
31091;SDS011;67728;53.122;12.776;2023-03-30T02:10:45;309.90;;;58.93;;
31091;SDS011;67728;53.122;12.776;2023-03-30T02:12:19;313.10;;;60.27;;
31091;SDS011;67728;53.122;12.776;2023-03-30T02:13:52;309.60;;;59.30;;
31091;SDS011;67728;53.122;12.776;2023-03-30T02:15:29;309.90;;;58.70;;
31091;SDS011;67728;53.122;12.776;2023-03-30T02:17:06;309.73;;;59.13;;
31091;SDS011;67728;53.122;12.776;2023-03-30T02:18:43;311.00;;;59.63;;
31091;SDS011;67728;53.122;12.776;2023-03-30T02:20:15;312.40;;;59.83;;
31091;SDS011;67728;53.122;12.776;2023-03-30T02:21:48;311.50;;;59.27;;
31091;SDS011;67728;53.122;12.776;2023-03-30T02:23:19;311.00;;;59.60;;
31091;SDS011;67728;53.122;12.776;2023-03-30T02:24:53;312.57;;;59.50;;
31091;SDS011;67728;53.122;12.776;2023-03-30T02:26:27;312.53;;;60.30;;
31091;SDS011;67728;53.122;12.776;2023-03-30T02:28:00;312.47;;;60.23;;
31091;SDS011;67728;53.122;12.776;2023-03-30T02:29:32;315.73;;;61.07;;
31091;SDS011;67728;53.122;12.776;2023-03-30T02:31:08;311.67;;;60.60;;
31091;SDS011;67728;53.122;12.776;2023-03-30T02:32:44;313.77;;;61.17;;
31091;SDS011;67728;53.122;12.776;2023-03-30T02:34:21;312.27;;;61.30;;
31091;SDS011;67728;53.122;12.776;2023-03-30T02:36:10;311.17;;;60.80;;
31091;SDS011;67728;53.122;12.776;2023-03-30T02:38:10;309.20;;;59.50;;
31091;SDS011;67728;53.122;12.776;2023-03-30T02:39:57;312.50;;;60.60;;
31091;SDS011;67728;53.122;12.776;2023-03-30T02:41:46;312.77;;;60.67;;
31091;SDS011;67728;53.122;12.776;2023-03-30T02:43:30;309.50;;;59.83;;
31091;SDS011;67728;53.122;12.776;2023-03-30T02:45:12;308.37;;;59.23;;
31091;SDS011;67728;53.122;12.776;2023-03-30T02:46:59;311.10;;;60.73;;
31091;SDS011;67728;53.122;12.776;2023-03-30T02:48:38;310.03;;;59.63;;
31091;SDS011;67728;53.122;12.776;2023-03-30T02:50:13;310.50;;;60.13;;
31091;SDS011;67728;53.122;12.776;2023-03-30T02:51:50;313.10;;;61.10;;
31091;SDS011;67728;53.122;12.776;2023-03-30T02:53:26;310.63;;;60.43;;
31091;SDS011;67728;53.122;12.776;2023-03-30T02:55:06;310.17;;;59.27;;
31091;SDS011;67728;53.122;12.776;2023-03-30T02:56:44;310.90;;;59.60;;
31091;SDS011;67728;53.122;12.776;2023-03-30T02:58:22;309.87;;;59.13;;
31091;SDS011;67728;53.122;12.776;2023-03-30T03:00:00;309.60;;;59.30;;
31091;SDS011;67728;53.122;12.776;2023-03-30T03:01:39;309.23;;;59.53;;
31091;SDS011;67728;53.122;12.776;2023-03-30T03:03:14;311.10;;;60.47;;
31091;SDS011;67728;53.122;12.776;2023-03-30T03:04:50;308.13;;;59.40;;
31091;SDS011;67728;53.122;12.776;2023-03-30T03:06:23;311.10;;;60.37;;
31091;SDS011;67728;53.122;12.776;2023-03-30T03:07:56;309.37;;;59.90;;
31091;SDS011;67728;53.122;12.776;2023-03-30T03:09:28;310.83;;;60.80;;
31091;SDS011;67728;53.122;12.776;2023-03-30T03:11:00;310.47;;;60.33;;
31091;SDS011;67728;53.122;12.776;2023-03-30T03:12:30;315.20;;;61.20;;
31091;SDS011;67728;53.122;12.776;2023-03-30T03:14:02;309.83;;;60.27;;
31091;SDS011;67728;53.122;12.776;2023-03-30T03:15:35;310.13;;;60.43;;
31091;SDS011;67728;53.122;12.776;2023-03-30T03:17:07;309.73;;;60.17;;
31091;SDS011;67728;53.122;12.776;2023-03-30T03:18:39;311.63;;;60.73;;
31091;SDS011;67728;53.122;12.776;2023-03-30T03:20:11;309.97;;;60.40;;
31091;SDS011;67728;53.122;12.776;2023-03-30T03:21:43;312.70;;;60.77;;
31091;SDS011;67728;53.122;12.776;2023-03-30T03:23:15;311.30;;;60.27;;
31091;SDS011;67728;53.122;12.776;2023-03-30T03:24:46;315.40;;;61.07;;
31091;SDS011;67728;53.122;12.776;2023-03-30T03:26:17;311.90;;;61.00;;
31091;SDS011;67728;53.122;12.776;2023-03-30T03:27:49;312.63;;;62.60;;
31091;SDS011;67728;53.122;12.776;2023-03-30T03:29:20;312.33;;;60.83;;
31091;SDS011;67728;53.122;12.776;2023-03-30T03:30:53;310.13;;;60.27;;
31091;SDS011;67728;53.122;12.776;2023-03-30T03:32:26;310.73;;;60.67;;
31091;SDS011;67728;53.122;12.776;2023-03-30T03:33:57;309.00;;;60.50;;
31091;SDS011;67728;53.122;12.776;2023-03-30T03:35:29;310.07;;;59.07;;
31091;SDS011;67728;53.122;12.776;2023-03-30T03:37:00;309.83;;;59.00;;
31091;SDS011;67728;53.122;12.776;2023-03-30T03:38:32;310.87;;;59.23;;
31091;SDS011;67728;53.122;12.776;2023-03-30T03:40:04;311.77;;;60.07;;
31091;SDS011;67728;53.122;12.776;2023-03-30T03:41:37;309.47;;;59.53;;
31091;SDS011;67728;53.122;12.776;2023-03-30T03:43:08;312.43;;;59.40;;
31091;SDS011;67728;53.122;12.776;2023-03-30T03:44:40;309.53;;;59.00;;
31091;SDS011;67728;53.122;12.776;2023-03-30T03:46:13;311.60;;;59.13;;
31091;SDS011;67728;53.122;12.776;2023-03-30T03:47:45;312.87;;;60.07;;
31091;SDS011;67728;53.122;12.776;2023-03-30T03:49:15;313.37;;;59.63;;
31091;SDS011;67728;53.122;12.776;2023-03-30T03:50:48;313.00;;;60.33;;
31091;SDS011;67728;53.122;12.776;2023-03-30T03:52:20;312.10;;;60.60;;
31091;SDS011;67728;53.122;12.776;2023-03-30T03:53:52;320.70;;;62.40;;
31091;SDS011;67728;53.122;12.776;2023-03-30T03:55:23;311.20;;;60.60;;
31091;SDS011;67728;53.122;12.776;2023-03-30T03:56:54;310.27;;;60.03;;
31091;SDS011;67728;53.122;12.776;2023-03-30T03:58:26;313.27;;;61.23;;
31091;SDS011;67728;53.122;12.776;2023-03-30T03:59:58;314.73;;;61.70;;
31091;SDS011;67728;53.122;12.776;2023-03-30T04:01:31;311.33;;;61.37;;
31091;SDS011;67728;53.122;12.776;2023-03-30T04:03:02;311.80;;;61.57;;
31091;SDS011;67728;53.122;12.776;2023-03-30T04:04:34;309.43;;;60.43;;
31091;SDS011;67728;53.122;12.776;2023-03-30T04:06:05;310.80;;;61.00;;
31091;SDS011;67728;53.122;12.776;2023-03-30T04:07:38;310.23;;;60.60;;
31091;SDS011;67728;53.122;12.776;2023-03-30T04:09:10;311.63;;;61.57;;
31091;SDS011;67728;53.122;12.776;2023-03-30T04:10:42;310.97;;;61.27;;
31091;SDS011;67728;53.122;12.776;2023-03-30T04:12:14;309.57;;;60.77;;
31091;SDS011;67728;53.122;12.776;2023-03-30T04:13:44;313.23;;;61.90;;
31091;SDS011;67728;53.122;12.776;2023-03-30T04:15:18;312.23;;;61.50;;
31091;SDS011;67728;53.122;12.776;2023-03-30T04:16:51;312.27;;;61.43;;
31091;SDS011;67728;53.122;12.776;2023-03-30T04:18:26;310.93;;;60.23;;
31091;SDS011;67728;53.122;12.776;2023-03-30T04:20:00;317.13;;;62.27;;
31091;SDS011;67728;53.122;12.776;2023-03-30T04:21:34;311.13;;;60.93;;
31091;SDS011;67728;53.122;12.776;2023-03-30T04:23:10;312.20;;;61.07;;
31091;SDS011;67728;53.122;12.776;2023-03-30T04:24:50;311.33;;;60.67;;
31091;SDS011;67728;53.122;12.776;2023-03-30T04:26:22;311.70;;;61.07;;
31091;SDS011;67728;53.122;12.776;2023-03-30T04:27:57;314.83;;;61.97;;
31091;SDS011;67728;53.122;12.776;2023-03-30T04:29:29;311.17;;;61.17;;
31091;SDS011;67728;53.122;12.776;2023-03-30T04:31:01;310.80;;;61.00;;
31091;SDS011;67728;53.122;12.776;2023-03-30T04:32:35;308.53;;;60.40;;
31091;SDS011;67728;53.122;12.776;2023-03-30T04:34:07;311.60;;;61.33;;
31091;SDS011;67728;53.122;12.776;2023-03-30T04:35:39;311.07;;;60.87;;
31091;SDS011;67728;53.122;12.776;2023-03-30T04:37:11;310.43;;;60.70;;
31091;SDS011;67728;53.122;12.776;2023-03-30T04:38:47;309.20;;;60.67;;
31091;SDS011;67728;53.122;12.776;2023-03-30T04:40:27;311.77;;;60.87;;
31091;SDS011;67728;53.122;12.776;2023-03-30T04:41:59;311.50;;;60.30;;
31091;SDS011;67728;53.122;12.776;2023-03-30T04:43:31;312.80;;;60.93;;
31091;SDS011;67728;53.122;12.776;2023-03-30T04:45:03;313.73;;;61.13;;
31091;SDS011;67728;53.122;12.776;2023-03-30T04:46:35;309.17;;;60.37;;
31091;SDS011;67728;53.122;12.776;2023-03-30T04:48:08;309.93;;;60.40;;
31091;SDS011;67728;53.122;12.776;2023-03-30T04:49:40;308.57;;;60.03;;
31091;SDS011;67728;53.122;12.776;2023-03-30T04:51:11;309.57;;;60.57;;
31091;SDS011;67728;53.122;12.776;2023-03-30T04:52:42;309.43;;;60.47;;
31091;SDS011;67728;53.122;12.776;2023-03-30T04:54:14;311.37;;;60.70;;
31091;SDS011;67728;53.122;12.776;2023-03-30T04:55:46;312.30;;;60.83;;
31091;SDS011;67728;53.122;12.776;2023-03-30T04:57:19;330.27;;;64.57;;
31091;SDS011;67728;53.122;12.776;2023-03-30T04:58:51;309.67;;;60.83;;
31091;SDS011;67728;53.122;12.776;2023-03-30T05:00:22;309.17;;;60.17;;
31091;SDS011;67728;53.122;12.776;2023-03-30T05:01:53;309.47;;;60.33;;
31091;SDS011;67728;53.122;12.776;2023-03-30T05:03:26;312.37;;;60.60;;
31091;SDS011;67728;53.122;12.776;2023-03-30T05:04:58;309.67;;;60.10;;
31091;SDS011;67728;53.122;12.776;2023-03-30T05:06:29;309.03;;;59.80;;
31091;SDS011;67728;53.122;12.776;2023-03-30T05:08:01;311.83;;;60.70;;
31091;SDS011;67728;53.122;12.776;2023-03-30T05:09:32;310.23;;;60.40;;
31091;SDS011;67728;53.122;12.776;2023-03-30T05:11:04;310.13;;;60.17;;
31091;SDS011;67728;53.122;12.776;2023-03-30T05:12:36;307.60;;;59.43;;
31091;SDS011;67728;53.122;12.776;2023-03-30T05:14:08;310.80;;;60.53;;
31091;SDS011;67728;53.122;12.776;2023-03-30T05:15:39;309.00;;;59.63;;
31091;SDS011;67728;53.122;12.776;2023-03-30T05:17:11;311.37;;;60.30;;
31091;SDS011;67728;53.122;12.776;2023-03-30T05:18:44;307.37;;;59.63;;
31091;SDS011;67728;53.122;12.776;2023-03-30T05:20:16;311.13;;;60.13;;
31091;SDS011;67728;53.122;12.776;2023-03-30T05:21:48;310.70;;;60.13;;
31091;SDS011;67728;53.122;12.776;2023-03-30T05:23:20;310.50;;;60.53;;
31091;SDS011;67728;53.122;12.776;2023-03-30T05:24:53;311.27;;;60.67;;
31091;SDS011;67728;53.122;12.776;2023-03-30T05:26:25;309.57;;;59.40;;
31091;SDS011;67728;53.122;12.776;2023-03-30T05:27:57;310.33;;;60.50;;
31091;SDS011;67728;53.122;12.776;2023-03-30T05:29:28;308.13;;;60.40;;
31091;SDS011;67728;53.122;12.776;2023-03-30T05:31:00;310.57;;;60.73;;
31091;SDS011;67728;53.122;12.776;2023-03-30T05:32:32;308.17;;;60.43;;
31091;SDS011;67728;53.122;12.776;2023-03-30T05:34:05;307.77;;;60.13;;
31091;SDS011;67728;53.122;12.776;2023-03-30T05:35:36;308.47;;;60.07;;
31091;SDS011;67728;53.122;12.776;2023-03-30T05:37:08;309.60;;;61.57;;
31091;SDS011;67728;53.122;12.776;2023-03-30T05:38:40;310.67;;;62.03;;
31091;SDS011;67728;53.122;12.776;2023-03-30T05:40:12;310.57;;;61.80;;
31091;SDS011;67728;53.122;12.776;2023-03-30T05:41:43;307.40;;;60.30;;
31091;SDS011;67728;53.122;12.776;2023-03-30T05:43:15;309.87;;;60.43;;
31091;SDS011;67728;53.122;12.776;2023-03-30T05:44:47;308.53;;;60.70;;
31091;SDS011;67728;53.122;12.776;2023-03-30T05:46:18;309.30;;;61.53;;
31091;SDS011;67728;53.122;12.776;2023-03-30T05:47:51;309.53;;;61.10;;
31091;SDS011;67728;53.122;12.776;2023-03-30T05:49:23;313.40;;;61.23;;
31091;SDS011;67728;53.122;12.776;2023-03-30T05:50:55;313.27;;;61.70;;
31091;SDS011;67728;53.122;12.776;2023-03-30T05:52:27;315.57;;;63.03;;
31091;SDS011;67728;53.122;12.776;2023-03-30T05:53:59;311.63;;;62.53;;
31091;SDS011;67728;53.122;12.776;2023-03-30T05:55:31;314.83;;;63.00;;
31091;SDS011;67728;53.122;12.776;2023-03-30T05:57:03;312.73;;;62.50;;
31091;SDS011;67728;53.122;12.776;2023-03-30T05:58:34;311.37;;;62.67;;
31091;SDS011;67728;53.122;12.776;2023-03-30T06:00:06;313.13;;;62.60;;
31091;SDS011;67728;53.122;12.776;2023-03-30T06:01:39;312.93;;;63.07;;
31091;SDS011;67728;53.122;12.776;2023-03-30T06:03:11;314.80;;;65.60;;
31091;SDS011;67728;53.122;12.776;2023-03-30T06:04:44;310.67;;;62.80;;
31091;SDS011;67728;53.122;12.776;2023-03-30T06:06:16;315.27;;;61.50;;
31091;SDS011;67728;53.122;12.776;2023-03-30T06:07:48;313.97;;;62.17;;
31091;SDS011;67728;53.122;12.776;2023-03-30T06:09:19;313.77;;;62.20;;
31091;SDS011;67728;53.122;12.776;2023-03-30T06:10:53;313.30;;;62.90;;
31091;SDS011;67728;53.122;12.776;2023-03-30T06:12:25;314.07;;;63.00;;
31091;SDS011;67728;53.122;12.776;2023-03-30T06:13:57;311.13;;;61.90;;
31091;SDS011;67728;53.122;12.776;2023-03-30T06:15:29;315.80;;;63.40;;
31091;SDS011;67728;53.122;12.776;2023-03-30T06:17:01;319.30;;;64.40;;
31091;SDS011;67728;53.122;12.776;2023-03-30T06:18:32;313.90;;;62.77;;
31091;SDS011;67728;53.122;12.776;2023-03-30T06:20:07;313.53;;;62.50;;
31091;SDS011;67728;53.122;12.776;2023-03-30T06:21:41;313.50;;;61.80;;
31091;SDS011;67728;53.122;12.776;2023-03-30T06:23:13;316.67;;;63.13;;
31091;SDS011;67728;53.122;12.776;2023-03-30T06:24:45;313.10;;;62.77;;
31091;SDS011;67728;53.122;12.776;2023-03-30T06:26:16;315.40;;;63.90;;
31091;SDS011;67728;53.122;12.776;2023-03-30T06:27:48;316.43;;;64.80;;
31091;SDS011;67728;53.122;12.776;2023-03-30T06:29:21;311.57;;;62.90;;
31091;SDS011;67728;53.122;12.776;2023-03-30T06:30:52;317.27;;;64.27;;
31091;SDS011;67728;53.122;12.776;2023-03-30T06:32:24;316.67;;;64.50;;
31091;SDS011;67728;53.122;12.776;2023-03-30T06:33:56;315.70;;;64.37;;
31091;SDS011;67728;53.122;12.776;2023-03-30T06:35:29;317.10;;;64.70;;
31091;SDS011;67728;53.122;12.776;2023-03-30T06:37:01;317.20;;;63.93;;
31091;SDS011;67728;53.122;12.776;2023-03-30T06:38:32;318.30;;;64.30;;
31091;SDS011;67728;53.122;12.776;2023-03-30T06:40:04;318.43;;;65.10;;
31091;SDS011;67728;53.122;12.776;2023-03-30T06:41:42;316.93;;;64.87;;
31091;SDS011;67728;53.122;12.776;2023-03-30T06:43:14;322.87;;;65.90;;
31091;SDS011;67728;53.122;12.776;2023-03-30T06:44:47;315.00;;;64.43;;
31091;SDS011;67728;53.122;12.776;2023-03-30T06:46:19;319.27;;;65.20;;
31091;SDS011;67728;53.122;12.776;2023-03-30T06:47:51;313.57;;;64.13;;
31091;SDS011;67728;53.122;12.776;2023-03-30T06:49:22;317.33;;;64.83;;
31091;SDS011;67728;53.122;12.776;2023-03-30T06:50:55;314.83;;;63.87;;
31091;SDS011;67728;53.122;12.776;2023-03-30T06:52:27;319.13;;;65.27;;
31091;SDS011;67728;53.122;12.776;2023-03-30T06:53:59;316.27;;;65.10;;
31091;SDS011;67728;53.122;12.776;2023-03-30T06:55:31;313.37;;;64.00;;
31091;SDS011;67728;53.122;12.776;2023-03-30T06:57:03;323.40;;;66.13;;
31091;SDS011;67728;53.122;12.776;2023-03-30T06:58:34;317.47;;;64.50;;
31091;SDS011;67728;53.122;12.776;2023-03-30T07:00:07;319.33;;;65.00;;
31091;SDS011;67728;53.122;12.776;2023-03-30T07:01:43;319.23;;;65.33;;
31091;SDS011;67728;53.122;12.776;2023-03-30T07:03:15;320.00;;;65.03;;
31091;SDS011;67728;53.122;12.776;2023-03-30T07:04:47;316.80;;;64.63;;
31091;SDS011;67728;53.122;12.776;2023-03-30T07:06:22;316.30;;;65.27;;
31091;SDS011;67728;53.122;12.776;2023-03-30T07:07:54;317.73;;;65.60;;
31091;SDS011;67728;53.122;12.776;2023-03-30T07:09:26;318.33;;;66.10;;
31091;SDS011;67728;53.122;12.776;2023-03-30T07:10:58;318.07;;;65.80;;
31091;SDS011;67728;53.122;12.776;2023-03-30T07:12:30;317.27;;;65.63;;
31091;SDS011;67728;53.122;12.776;2023-03-30T07:14:02;320.00;;;66.60;;
31091;SDS011;67728;53.122;12.776;2023-03-30T07:15:34;318.17;;;65.33;;
31091;SDS011;67728;53.122;12.776;2023-03-30T07:17:05;318.17;;;66.07;;
31091;SDS011;67728;53.122;12.776;2023-03-30T07:18:37;316.87;;;66.33;;
31091;SDS011;67728;53.122;12.776;2023-03-30T07:20:09;319.83;;;66.90;;
31091;SDS011;67728;53.122;12.776;2023-03-30T07:21:45;318.47;;;66.03;;
31091;SDS011;67728;53.122;12.776;2023-03-30T07:23:16;321.50;;;69.30;;
31091;SDS011;67728;53.122;12.776;2023-03-30T07:24:48;319.80;;;66.87;;
31091;SDS011;67728;53.122;12.776;2023-03-30T07:26:20;322.90;;;68.20;;
31091;SDS011;67728;53.122;12.776;2023-03-30T07:27:51;321.70;;;67.73;;
31091;SDS011;67728;53.122;12.776;2023-03-30T07:29:23;317.80;;;67.43;;
31091;SDS011;67728;53.122;12.776;2023-03-30T07:31:01;318.90;;;66.40;;
31091;SDS011;67728;53.122;12.776;2023-03-30T07:32:35;319.27;;;67.67;;
31091;SDS011;67728;53.122;12.776;2023-03-30T07:34:06;319.67;;;66.77;;
31091;SDS011;67728;53.122;12.776;2023-03-30T07:35:41;319.90;;;67.87;;
31091;SDS011;67728;53.122;12.776;2023-03-30T07:37:15;318.77;;;68.60;;
31091;SDS011;67728;53.122;12.776;2023-03-30T07:38:47;319.83;;;67.13;;
31091;SDS011;67728;53.122;12.776;2023-03-30T07:40:19;319.57;;;70.20;;
31091;SDS011;67728;53.122;12.776;2023-03-30T07:41:50;321.23;;;69.78;;
31091;SDS011;67728;53.122;12.776;2023-03-30T07:43:22;322.03;;;69.97;;
31091;SDS011;67728;53.122;12.776;2023-03-30T07:44:54;321.77;;;69.37;;
31091;SDS011;67728;53.122;12.776;2023-03-30T07:46:25;319.37;;;66.30;;
31091;SDS011;67728;53.122;12.776;2023-03-30T07:47:57;325.27;;;67.70;;
31091;SDS011;67728;53.122;12.776;2023-03-30T07:49:29;322.60;;;68.57;;
31091;SDS011;67728;53.122;12.776;2023-03-30T07:51:01;321.23;;;66.57;;
31091;SDS011;67728;53.122;12.776;2023-03-30T07:52:36;319.90;;;66.87;;
31091;SDS011;67728;53.122;12.776;2023-03-30T07:54:08;334.43;;;89.53;;
31091;SDS011;67728;53.122;12.776;2023-03-30T07:55:40;323.40;;;70.53;;
31091;SDS011;67728;53.122;12.776;2023-03-30T07:57:12;324.88;;;72.50;;
31091;SDS011;67728;53.122;12.776;2023-03-30T07:58:44;326.20;;;75.25;;
31091;SDS011;67728;53.122;12.776;2023-03-30T08:00:15;329.60;;;78.43;;
31091;SDS011;67728;53.122;12.776;2023-03-30T08:01:47;329.92;;;74.97;;
31091;SDS011;67728;53.122;12.776;2023-03-30T08:03:23;328.80;;;74.27;;
31091;SDS011;67728;53.122;12.776;2023-03-30T08:04:55;326.35;;;74.78;;
31091;SDS011;67728;53.122;12.776;2023-03-30T08:06:27;330.08;;;73.10;;
31091;SDS011;67728;53.122;12.776;2023-03-30T08:08:00;332.13;;;73.70;;
31091;SDS011;67728;53.122;12.776;2023-03-30T08:09:32;323.88;;;72.55;;
31091;SDS011;67728;53.122;12.776;2023-03-30T08:11:05;326.48;;;72.80;;
31091;SDS011;67728;53.122;12.776;2023-03-30T08:12:38;322.25;;;69.97;;
31091;SDS011;67728;53.122;12.776;2023-03-30T08:14:10;327.00;;;72.63;;
31091;SDS011;67728;53.122;12.776;2023-03-30T08:15:41;323.53;;;70.63;;
31091;SDS011;67728;53.122;12.776;2023-03-30T08:17:13;325.83;;;71.90;;
31091;SDS011;67728;53.122;12.776;2023-03-30T08:18:45;326.70;;;77.10;;
31091;SDS011;67728;53.122;12.776;2023-03-30T08:20:16;323.02;;;72.88;;
31091;SDS011;67728;53.122;12.776;2023-03-30T08:21:48;325.97;;;70.93;;
31091;SDS011;67728;53.122;12.776;2023-03-30T08:23:21;323.90;;;71.00;;
31091;SDS011;67728;53.122;12.776;2023-03-30T08:24:53;333.30;;;87.43;;
31091;SDS011;67728;53.122;12.776;2023-03-30T08:26:26;325.03;;;71.57;;
31091;SDS011;67728;53.122;12.776;2023-03-30T08:27:59;323.57;;;69.03;;
31091;SDS011;67728;53.122;12.776;2023-03-30T08:29:31;325.90;;;73.50;;
31091;SDS011;67728;53.122;12.776;2023-03-30T08:31:03;324.97;;;72.87;;
31091;SDS011;67728;53.122;12.776;2023-03-30T08:32:35;320.00;;;69.00;;
31091;SDS011;67728;53.122;12.776;2023-03-30T08:34:07;324.53;;;69.43;;
31091;SDS011;67728;53.122;12.776;2023-03-30T08:35:39;322.33;;;69.85;;
31091;SDS011;67728;53.122;12.776;2023-03-30T08:37:10;322.13;;;69.30;;
31091;SDS011;67728;53.122;12.776;2023-03-30T08:38:43;321.17;;;68.97;;
31091;SDS011;67728;53.122;12.776;2023-03-30T08:40:15;321.67;;;69.07;;
31091;SDS011;67728;53.122;12.776;2023-03-30T08:41:58;324.20;;;73.03;;
31091;SDS011;67728;53.122;12.776;2023-03-30T08:43:41;330.63;;;87.07;;
31091;SDS011;67728;53.122;12.776;2023-03-30T08:45:20;321.90;;;68.40;;
31091;SDS011;67728;53.122;12.776;2023-03-30T08:46:52;322.47;;;68.50;;
31091;SDS011;67728;53.122;12.776;2023-03-30T08:48:24;320.00;;;68.57;;
31091;SDS011;67728;53.122;12.776;2023-03-30T08:49:59;321.13;;;69.23;;
31091;SDS011;67728;53.122;12.776;2023-03-30T08:51:41;320.57;;;68.53;;
31091;SDS011;67728;53.122;12.776;2023-03-30T08:53:13;321.23;;;69.93;;
31091;SDS011;67728;53.122;12.776;2023-03-30T08:54:46;329.83;;;83.07;;
31091;SDS011;67728;53.122;12.776;2023-03-30T08:56:19;318.53;;;70.70;;
31091;SDS011;67728;53.122;12.776;2023-03-30T08:57:54;323.40;;;77.70;;
31091;SDS011;67728;53.122;12.776;2023-03-30T08:59:34;320.70;;;70.60;;
31091;SDS011;67728;53.122;12.776;2023-03-30T09:01:14;331.20;;;86.60;;